• Join FlightAware (Why Join?)
  • Login
  • US Flag 
03:10PM EDT


 

Airport Tracker/Info


-or-


 

Live Flight TrackerFlight Track Log ✈ UAL5829 ✈ 22-Apr-2013 ✈ KIAD - KORF

Flight Track Log - Related Links

Times and Time Zones

All times are in EDT time to prevent confusion due to time zone crossing. See the UAL5829 flight status page for this flight to view local times or setup timezone preferences in your user account.

Time Position Orientation Groundspeed Altitude Reporting Facility
EDT Latitude Longitude Course Direction KTS MPH feet Rate Location/Type
05:27PM 39.0000 -77.4500 125° Southeast 207 238 3,300  Level Potomac TRACON
05:28PM 39.0667 -77.4667 349° North 255 293 6,000 3,000 Climbing Potomac TRACON
05:29PM 38.8000 -77.1938 90° East  Level FlightAware Approximate
05:29PM 39.1333 -77.4833 349° North 250 288 9,100  Level Potomac TRACON
05:30PM 38.7612 -77.1056 123° Southeast  Level FlightAware Approximate
05:30PM 39.1833 -77.4333 38° Northeast 284 327 9,900  Level Potomac TRACON
05:31PM 38.7161 -77.0157 125° Southeast  Level FlightAware Approximate
05:31PM 39.1833 -77.3333 90° East 320 368 10,000  Level Potomac TRACON
05:32PM 38.6684 -76.9281 125° Southeast  Level FlightAware Approximate
05:32PM 39.1500 -77.2000 108° East 351 404 10,100  Level Potomac TRACON
05:33PM 39.1167 -77.0667 108° East 364 419 11,800 1,500 Climbing Potomac TRACON
05:34PM 39.0500 -76.9833 136° Southeast 360 414 13,300 1,140 Climbing Potomac TRACON
05:35PM 38.9667 -76.9333 155° Southeast 375 432 14,000 360 Climbing Potomac TRACON
05:36PM 38.8667 -76.8833 159° South 414 476 14,000  Level Potomac TRACON
05:37PM 38.7653 -76.8378 161° South 396 456 14,000  Level Washington Center
05:38PM 38.6739 -76.7883 157° South 425 489 14,000  Level Washington Center
05:39PM 38.5744 -76.7389 159° South 407 468 14,000 1,980 Level Washington Center
05:40PM 38.4786 -76.7136 168° South 392 451 18,000  Climbing Washington Center
05:41PM 38.3661 -76.7039 176° South 386 444 14,100  Descending Washington Center
05:42PM 38.2456 -76.6597 164° South 396 456 18,000 -60 Climbing Washington Center
05:43PM 38.1522 -76.6214 162° South 377 434 14,000 -1,980 Descending Washington Center
05:44PM 38.0544 -76.5700 158° South 377 434 14,100 -660 Climbing Washington Center
05:45PM 37.9589 -76.5189 157° South 377 434 12,700 -1,680 Descending Washington Center
05:46PM 37.8656 -76.4703 158° South 377 434 10,800 -1,440 Descending Washington Center
05:47PM 37.7844 -76.4300 159° South 344 396 10,000 -480 Descending Washington Center
05:48PM 37.7033 -76.3872 157° South 316 364 10,000  Level Washington Center
05:49PM 37.6117 -76.3625 168° South 332 382 10,000 -60 Level Washington Center
05:50PM 37.5139 -76.3381 169° South 328 377 9,900  Descending Washington Center
05:51PM 37.4200 -76.3214 172° South 336 387 10,000  Climbing Washington Center
05:52PM 37.3328 -76.2972 168° South 334 384 9,900 -1,200 Descending Washington Center
05:53PM 37.2578 -76.2833 172° South 264 304 7,600 -1,800 Descending Washington Center
05:54PM 37.1911 -76.2697 171° South 249 287 6,300 -840 Descending Washington Center
05:55PM 37.1242 -76.2769 185° South 256 295 6,000 -720 Descending Washington Center
05:56PM 37.0572 -76.3050 198° South 249 287 5,000 -1,380 Descending Washington Center
05:57PM 36.9717 -76.3328 195° South 275 316 3,000 -960 Descending Washington Center
05:58PM 36.9067 -76.3503 192° South 229 264 3,000 -60 Level Washington Center
05:59PM 36.8314 -76.3808 198° South 281 323 2,900 -120 Descending Washington Center